sensor_id;sensor_type;location;lat;lon;timestamp;P1;durP1;ratioP1;P2;durP2;ratioP2
23608;SDS011;11982;50.810;4.442;2022-09-03T00:01:03;5.82;;;3.83;;
23608;SDS011;11982;50.810;4.442;2022-09-03T00:03:42;7.63;;;3.95;;
23608;SDS011;11982;50.810;4.442;2022-09-03T00:06:17;11.25;;;5.70;;
23608;SDS011;11982;50.810;4.442;2022-09-03T00:09:17;4.90;;;4.40;;
23608;SDS011;11982;50.810;4.442;2022-09-03T00:11:52;8.05;;;4.82;;
23608;SDS011;11982;50.810;4.442;2022-09-03T00:14:59;8.07;;;6.47;;
23608;SDS011;11982;50.810;4.442;2022-09-03T00:17:41;8.65;;;4.78;;
23608;SDS011;11982;50.810;4.442;2022-09-03T00:20:12;5.88;;;4.38;;
23608;SDS011;11982;50.810;4.442;2022-09-03T00:22:46;8.18;;;4.80;;
23608;SDS011;11982;50.810;4.442;2022-09-03T00:25:23;6.45;;;4.35;;
23608;SDS011;11982;50.810;4.442;2022-09-03T00:27:53;6.32;;;4.43;;
23608;SDS011;11982;50.810;4.442;2022-09-03T00:30:21;4.65;;;3.90;;
23608;SDS011;11982;50.810;4.442;2022-09-03T00:32:55;5.20;;;3.50;;
23608;SDS011;11982;50.810;4.442;2022-09-03T00:35:32;4.85;;;3.45;;
23608;SDS011;11982;50.810;4.442;2022-09-03T00:38:13;6.10;;;3.50;;
23608;SDS011;11982;50.810;4.442;2022-09-03T00:40:51;5.47;;;4.05;;
23608;SDS011;11982;50.810;4.442;2022-09-03T01:00:12;4.37;;;3.90;;
23608;SDS011;11982;50.810;4.442;2022-09-03T01:06:08;6.07;;;3.80;;
23608;SDS011;11982;50.810;4.442;2022-09-03T01:17:21;7.80;;;4.25;;
23608;SDS011;11982;50.810;4.442;2022-09-03T01:37:31;5.32;;;3.80;;
23608;SDS011;11982;50.810;4.442;2022-09-03T01:40:08;6.50;;;4.32;;
23608;SDS011;11982;50.810;4.442;2022-09-03T01:53:39;5.60;;;4.93;;
23608;SDS011;11982;50.810;4.442;2022-09-03T01:56:35;8.02;;;4.88;;
23608;SDS011;11982;50.810;4.442;2022-09-03T01:59:34;8.48;;;4.72;;
23608;SDS011;11982;50.810;4.442;2022-09-03T02:02:21;7.20;;;4.68;;
23608;SDS011;11982;50.810;4.442;2022-09-03T02:05:06;6.32;;;4.55;;
23608;SDS011;11982;50.810;4.442;2022-09-03T02:07:42;6.72;;;4.70;;
23608;SDS011;11982;50.810;4.442;2022-09-03T02:10:12;6.25;;;4.47;;
23608;SDS011;11982;50.810;4.442;2022-09-03T02:12:40;6.32;;;4.47;;
23608;SDS011;11982;50.810;4.442;2022-09-03T02:15:14;7.07;;;4.30;;
23608;SDS011;11982;50.810;4.442;2022-09-03T02:17:43;8.27;;;4.80;;
23608;SDS011;11982;50.810;4.442;2022-09-03T02:20:11;9.18;;;5.35;;
23608;SDS011;11982;50.810;4.442;2022-09-03T02:22:44;5.82;;;4.60;;
23608;SDS011;11982;50.810;4.442;2022-09-03T02:25:11;7.40;;;4.13;;
23608;SDS011;11982;50.810;4.442;2022-09-03T02:27:37;12.10;;;4.65;;
23608;SDS011;11982;50.810;4.442;2022-09-03T02:30:04;5.32;;;4.70;;
23608;SDS011;11982;50.810;4.442;2022-09-03T02:32:30;7.05;;;4.55;;
23608;SDS011;11982;50.810;4.442;2022-09-03T02:34:57;5.53;;;4.10;;
23608;SDS011;11982;50.810;4.442;2022-09-03T02:37:23;7.93;;;4.32;;
23608;SDS011;11982;50.810;4.442;2022-09-03T02:39:48;4.70;;;4.07;;
23608;SDS011;11982;50.810;4.442;2022-09-03T02:42:16;5.38;;;4.22;;
23608;SDS011;11982;50.810;4.442;2022-09-03T02:44:52;4.90;;;4.40;;
23608;SDS011;11982;50.810;4.442;2022-09-03T02:47:24;5.65;;;4.25;;
23608;SDS011;11982;50.810;4.442;2022-09-03T02:49:55;6.45;;;4.55;;
23608;SDS011;11982;50.810;4.442;2022-09-03T02:52:20;8.30;;;4.50;;
23608;SDS011;11982;50.810;4.442;2022-09-03T02:54:46;5.05;;;4.55;;
23608;SDS011;11982;50.810;4.442;2022-09-03T02:57:13;7.30;;;4.68;;
23608;SDS011;11982;50.810;4.442;2022-09-03T02:59:40;4.50;;;4.10;;
23608;SDS011;11982;50.810;4.442;2022-09-03T03:02:08;9.13;;;4.55;;
23608;SDS011;11982;50.810;4.442;2022-09-03T03:04:34;6.93;;;4.80;;
23608;SDS011;11982;50.810;4.442;2022-09-03T03:07:00;5.80;;;4.30;;
23608;SDS011;11982;50.810;4.442;2022-09-03T03:09:25;4.70;;;4.30;;
23608;SDS011;11982;50.810;4.442;2022-09-03T03:11:51;6.80;;;4.20;;
23608;SDS011;11982;50.810;4.442;2022-09-03T03:14:19;5.53;;;4.45;;
23608;SDS011;11982;50.810;4.442;2022-09-03T03:16:46;10.77;;;5.25;;
23608;SDS011;11982;50.810;4.442;2022-09-03T03:19:12;5.60;;;4.75;;
23608;SDS011;11982;50.810;4.442;2022-09-03T03:21:37;6.13;;;4.60;;
23608;SDS011;11982;50.810;4.442;2022-09-03T03:24:03;6.18;;;4.88;;
23608;SDS011;11982;50.810;4.442;2022-09-03T03:26:29;5.90;;;5.18;;
23608;SDS011;11982;50.810;4.442;2022-09-03T03:28:56;5.82;;;5.25;;
23608;SDS011;11982;50.810;4.442;2022-09-03T03:31:24;8.13;;;5.55;;
23608;SDS011;11982;50.810;4.442;2022-09-03T03:33:54;8.30;;;5.43;;
23608;SDS011;11982;50.810;4.442;2022-09-03T03:36:22;6.40;;;5.80;;
23608;SDS011;11982;50.810;4.442;2022-09-03T03:38:51;9.63;;;5.82;;
23608;SDS011;11982;50.810;4.442;2022-09-03T03:41:21;6.38;;;5.78;;
23608;SDS011;11982;50.810;4.442;2022-09-03T03:43:52;12.45;;;6.68;;
23608;SDS011;11982;50.810;4.442;2022-09-03T03:46:19;10.05;;;6.43;;
23608;SDS011;11982;50.810;4.442;2022-09-03T03:48:47;11.70;;;6.95;;
23608;SDS011;11982;50.810;4.442;2022-09-03T03:51:17;9.75;;;6.97;;
23608;SDS011;11982;50.810;4.442;2022-09-03T03:53:43;9.20;;;7.78;;
23608;SDS011;11982;50.810;4.442;2022-09-03T03:56:10;15.80;;;8.50;;
23608;SDS011;11982;50.810;4.442;2022-09-03T03:58:37;9.43;;;7.60;;
23608;SDS011;11982;50.810;4.442;2022-09-03T04:01:15;11.93;;;7.72;;
23608;SDS011;11982;50.810;4.442;2022-09-03T04:03:42;11.57;;;8.32;;
23608;SDS011;11982;50.810;4.442;2022-09-03T04:06:09;10.13;;;8.88;;
23608;SDS011;11982;50.810;4.442;2022-09-03T04:08:36;10.93;;;8.68;;
23608;SDS011;11982;50.810;4.442;2022-09-03T04:11:05;11.20;;;9.10;;
23608;SDS011;11982;50.810;4.442;2022-09-03T04:13:34;11.10;;;8.57;;
23608;SDS011;11982;50.810;4.442;2022-09-03T04:16:02;13.90;;;9.93;;
23608;SDS011;11982;50.810;4.442;2022-09-03T04:18:32;16.20;;;9.60;;
23608;SDS011;11982;50.810;4.442;2022-09-03T04:21:09;13.70;;;8.85;;
23608;SDS011;11982;50.810;4.442;2022-09-03T04:23:41;11.82;;;9.85;;
23608;SDS011;11982;50.810;4.442;2022-09-03T04:26:08;12.60;;;9.98;;
23608;SDS011;11982;50.810;4.442;2022-09-03T04:28:35;11.32;;;9.98;;
23608;SDS011;11982;50.810;4.442;2022-09-03T04:31:02;14.93;;;10.20;;
23608;SDS011;11982;50.810;4.442;2022-09-03T04:33:30;15.95;;;10.82;;
23608;SDS011;11982;50.810;4.442;2022-09-03T04:38:36;12.38;;;9.60;;
23608;SDS011;11982;50.810;4.442;2022-09-03T04:41:04;14.63;;;11.55;;
23608;SDS011;11982;50.810;4.442;2022-09-03T04:43:34;13.70;;;11.20;;
23608;SDS011;11982;50.810;4.442;2022-09-03T04:46:01;18.80;;;12.65;;
23608;SDS011;11982;50.810;4.442;2022-09-03T04:48:29;19.05;;;11.80;;
23608;SDS011;11982;50.810;4.442;2022-09-03T04:51:06;17.65;;;12.18;;
23608;SDS011;11982;50.810;4.442;2022-09-03T04:53:38;19.17;;;12.25;;
23608;SDS011;11982;50.810;4.442;2022-09-03T04:56:14;18.10;;;12.40;;
23608;SDS011;11982;50.810;4.442;2022-09-03T04:58:42;14.77;;;11.50;;
23608;SDS011;11982;50.810;4.442;2022-09-03T05:01:08;15.40;;;10.93;;
23608;SDS011;11982;50.810;4.442;2022-09-03T05:03:35;15.45;;;11.93;;
23608;SDS011;11982;50.810;4.442;2022-09-03T05:06:01;18.00;;;12.38;;
23608;SDS011;11982;50.810;4.442;2022-09-03T05:08:27;15.75;;;11.90;;
23608;SDS011;11982;50.810;4.442;2022-09-03T05:10:59;19.75;;;12.48;;
23608;SDS011;11982;50.810;4.442;2022-09-03T05:13:25;16.30;;;12.25;;
23608;SDS011;11982;50.810;4.442;2022-09-03T05:15:52;14.32;;;12.02;;
23608;SDS011;11982;50.810;4.442;2022-09-03T05:18:27;19.55;;;13.35;;
23608;SDS011;11982;50.810;4.442;2022-09-03T05:21:04;13.80;;;12.30;;
23608;SDS011;11982;50.810;4.442;2022-09-03T05:23:31;19.33;;;13.02;;
23608;SDS011;11982;50.810;4.442;2022-09-03T05:26:01;16.60;;;12.50;;
23608;SDS011;11982;50.810;4.442;2022-09-03T05:28:33;15.23;;;13.43;;
23608;SDS011;11982;50.810;4.442;2022-09-03T05:31:10;18.40;;;13.43;;
23608;SDS011;11982;50.810;4.442;2022-09-03T05:33:37;16.85;;;12.52;;
23608;SDS011;11982;50.810;4.442;2022-09-03T05:36:05;16.15;;;13.27;;
23608;SDS011;11982;50.810;4.442;2022-09-03T05:38:33;14.43;;;12.52;;
23608;SDS011;11982;50.810;4.442;2022-09-03T05:41:03;16.05;;;13.13;;
23608;SDS011;11982;50.810;4.442;2022-09-03T05:43:30;16.67;;;13.15;;
23608;SDS011;11982;50.810;4.442;2022-09-03T05:45:57;14.63;;;13.05;;
23608;SDS011;11982;50.810;4.442;2022-09-03T05:48:31;14.30;;;11.80;;
23608;SDS011;11982;50.810;4.442;2022-09-03T05:51:05;19.55;;;12.20;;
23608;SDS011;11982;50.810;4.442;2022-09-03T05:53:36;16.75;;;12.05;;
23608;SDS011;11982;50.810;4.442;2022-09-03T05:56:05;17.67;;;12.60;;
23608;SDS011;11982;50.810;4.442;2022-09-03T05:58:42;20.77;;;13.48;;
23608;SDS011;11982;50.810;4.442;2022-09-03T06:03:38;14.32;;;11.93;;
23608;SDS011;11982;50.810;4.442;2022-09-03T06:06:05;16.10;;;11.35;;
23608;SDS011;11982;50.810;4.442;2022-09-03T06:08:32;13.45;;;10.90;;
23608;SDS011;11982;50.810;4.442;2022-09-03T06:10:58;17.00;;;11.65;;
23608;SDS011;11982;50.810;4.442;2022-09-03T06:13:25;14.57;;;11.02;;
23608;SDS011;11982;50.810;4.442;2022-09-03T06:15:57;15.35;;;10.90;;
23608;SDS011;11982;50.810;4.442;2022-09-03T06:18:24;12.32;;;11.02;;
23608;SDS011;11982;50.810;4.442;2022-09-03T06:20:57;17.88;;;10.40;;
23608;SDS011;11982;50.810;4.442;2022-09-03T06:23:24;11.98;;;10.10;;
23608;SDS011;11982;50.810;4.442;2022-09-03T06:26:01;11.50;;;9.60;;
23608;SDS011;11982;50.810;4.442;2022-09-03T06:28:34;13.48;;;8.98;;
23608;SDS011;11982;50.810;4.442;2022-09-03T06:31:02;11.60;;;9.23;;
23608;SDS011;11982;50.810;4.442;2022-09-03T06:33:31;13.00;;;9.23;;
23608;SDS011;11982;50.810;4.442;2022-09-03T06:35:58;10.23;;;9.20;;
23608;SDS011;11982;50.810;4.442;2022-09-03T06:38:25;12.10;;;9.10;;
23608;SDS011;11982;50.810;4.442;2022-09-03T06:40:56;10.10;;;9.15;;
23608;SDS011;11982;50.810;4.442;2022-09-03T06:43:26;10.20;;;8.57;;
23608;SDS011;11982;50.810;4.442;2022-09-03T06:45:56;10.32;;;8.57;;
23608;SDS011;11982;50.810;4.442;2022-09-03T06:48:26;9.43;;;7.90;;
23608;SDS011;11982;50.810;4.442;2022-09-03T06:53:23;9.75;;;7.85;;
23608;SDS011;11982;50.810;4.442;2022-09-03T06:55:54;9.52;;;7.38;;
23608;SDS011;11982;50.810;4.442;2022-09-03T06:58:43;8.65;;;7.80;;
23608;SDS011;11982;50.810;4.442;2022-09-03T07:03:39;7.90;;;7.10;;
23608;SDS011;11982;50.810;4.442;2022-09-03T07:06:07;10.60;;;7.00;;
23608;SDS011;11982;50.810;4.442;2022-09-03T07:08:37;9.70;;;7.60;;
23608;SDS011;11982;50.810;4.442;2022-09-03T07:11:04;9.02;;;6.43;;
23608;SDS011;11982;50.810;4.442;2022-09-03T07:13:37;8.00;;;6.75;;
23608;SDS011;11982;50.810;4.442;2022-09-03T07:16:09;7.32;;;6.47;;
23608;SDS011;11982;50.810;4.442;2022-09-03T07:18:37;10.05;;;6.80;;
23608;SDS011;11982;50.810;4.442;2022-09-03T07:21:06;7.13;;;6.50;;
23608;SDS011;11982;50.810;4.442;2022-09-03T07:23:34;7.72;;;6.53;;
23608;SDS011;11982;50.810;4.442;2022-09-03T07:26:02;8.85;;;6.45;;
23608;SDS011;11982;50.810;4.442;2022-09-03T07:28:39;8.55;;;5.85;;
23608;SDS011;11982;50.810;4.442;2022-09-03T07:31:09;9.48;;;6.13;;
23608;SDS011;11982;50.810;4.442;2022-09-03T07:33:40;8.25;;;5.57;;
23608;SDS011;11982;50.810;4.442;2022-09-03T07:36:10;6.18;;;5.57;;
23608;SDS011;11982;50.810;4.442;2022-09-03T07:38:38;8.75;;;6.20;;
23608;SDS011;11982;50.810;4.442;2022-09-03T07:41:05;7.70;;;5.60;;
23608;SDS011;11982;50.810;4.442;2022-09-03T07:43:33;7.32;;;5.80;;
23608;SDS011;11982;50.810;4.442;2022-09-03T07:46:16;7.03;;;5.75;;
23608;SDS011;11982;50.810;4.442;2022-09-03T07:48:46;7.18;;;5.70;;
23608;SDS011;11982;50.810;4.442;2022-09-03T07:51:13;6.10;;;5.35;;
23608;SDS011;11982;50.810;4.442;2022-09-03T07:53:38;6.25;;;5.25;;
23608;SDS011;11982;50.810;4.442;2022-09-03T07:56:05;7.43;;;5.60;;
23608;SDS011;11982;50.810;4.442;2022-09-03T07:58:33;7.47;;;5.35;;
23608;SDS011;11982;50.810;4.442;2022-09-03T08:01:04;6.35;;;5.00;;
23608;SDS011;11982;50.810;4.442;2022-09-03T08:03:32;5.05;;;4.60;;
23608;SDS011;11982;50.810;4.442;2022-09-03T08:05:59;7.55;;;4.78;;
23608;SDS011;11982;50.810;4.442;2022-09-03T08:08:27;7.53;;;4.20;;
23608;SDS011;11982;50.810;4.442;2022-09-03T08:10:53;7.25;;;4.40;;
23608;SDS011;11982;50.810;4.442;2022-09-03T08:13:18;6.90;;;4.72;;
23608;SDS011;11982;50.810;4.442;2022-09-03T08:15:54;8.15;;;4.53;;
23608;SDS011;11982;50.810;4.442;2022-09-03T08:18:20;8.60;;;4.40;;
23608;SDS011;11982;50.810;4.442;2022-09-03T08:20:47;6.18;;;4.35;;
23608;SDS011;11982;50.810;4.442;2022-09-03T08:23:12;6.45;;;4.15;;
23608;SDS011;11982;50.810;4.442;2022-09-03T08:25:38;6.85;;;4.63;;
23608;SDS011;11982;50.810;4.442;2022-09-03T08:28:04;4.78;;;4.10;;
23608;SDS011;11982;50.810;4.442;2022-09-03T08:30:29;7.85;;;4.78;;
23608;SDS011;11982;50.810;4.442;2022-09-03T08:32:55;11.90;;;4.78;;
23608;SDS011;11982;50.810;4.442;2022-09-03T08:35:21;6.38;;;4.75;;
23608;SDS011;11982;50.810;4.442;2022-09-03T08:37:47;5.75;;;4.82;;
23608;SDS011;11982;50.810;4.442;2022-09-03T08:40:18;8.25;;;4.85;;
23608;SDS011;11982;50.810;4.442;2022-09-03T08:42:51;10.95;;;5.28;;
23608;SDS011;11982;50.810;4.442;2022-09-03T08:45:30;6.65;;;4.57;;
23608;SDS011;11982;50.810;4.442;2022-09-03T08:48:05;6.32;;;4.63;;
23608;SDS011;11982;50.810;4.442;2022-09-03T08:50:52;10.05;;;5.97;;
23608;SDS011;11982;50.810;4.442;2022-09-03T08:53:27;7.57;;;5.22;;
23608;SDS011;11982;50.810;4.442;2022-09-03T08:56:06;6.45;;;5.10;;
23608;SDS011;11982;50.810;4.442;2022-09-03T08:58:37;9.02;;;5.20;;
23608;SDS011;11982;50.810;4.442;2022-09-03T09:01:11;9.32;;;5.47;;
23608;SDS011;11982;50.810;4.442;2022-09-03T09:06:34;10.63;;;4.90;;
23608;SDS011;11982;50.810;4.442;2022-09-03T09:09:24;7.60;;;5.53;;
23608;SDS011;11982;50.810;4.442;2022-09-03T09:14:30;9.73;;;5.15;;
23608;SDS011;11982;50.810;4.442;2022-09-03T09:20:01;11.25;;;5.32;;
23608;SDS011;11982;50.810;4.442;2022-09-03T09:22:52;8.15;;;4.82;;
23608;SDS011;11982;50.810;4.442;2022-09-03T09:25:23;5.57;;;4.82;;
23608;SDS011;11982;50.810;4.442;2022-09-03T09:28:00;9.55;;;5.25;;
23608;SDS011;11982;50.810;4.442;2022-09-03T09:30:29;5.95;;;4.82;;
23608;SDS011;11982;50.810;4.442;2022-09-03T09:32:56;10.27;;;5.30;;
23608;SDS011;11982;50.810;4.442;2022-09-03T09:35:22;10.05;;;5.07;;
23608;SDS011;11982;50.810;4.442;2022-09-03T09:37:52;5.95;;;4.85;;
23608;SDS011;11982;50.810;4.442;2022-09-03T09:42:49;8.73;;;5.00;;
23608;SDS011;11982;50.810;4.442;2022-09-03T09:45:15;8.15;;;5.13;;
23608;SDS011;11982;50.810;4.442;2022-09-03T09:47:41;10.30;;;5.03;;
23608;SDS011;11982;50.810;4.442;2022-09-03T09:50:19;8.57;;;5.30;;
23608;SDS011;11982;50.810;4.442;2022-09-03T09:52:46;8.80;;;5.50;;
23608;SDS011;11982;50.810;4.442;2022-09-03T09:55:16;7.00;;;5.40;;
23608;SDS011;11982;50.810;4.442;2022-09-03T09:57:43;6.85;;;5.55;;
23608;SDS011;11982;50.810;4.442;2022-09-03T10:00:10;9.68;;;5.22;;
23608;SDS011;11982;50.810;4.442;2022-09-03T10:02:59;8.55;;;5.60;;
23608;SDS011;11982;50.810;4.442;2022-09-03T10:05:28;9.65;;;5.30;;
23608;SDS011;11982;50.810;4.442;2022-09-03T10:08:01;10.27;;;5.40;;
23608;SDS011;11982;50.810;4.442;2022-09-03T10:10:41;13.30;;;6.30;;
23608;SDS011;11982;50.810;4.442;2022-09-03T10:13:16;8.20;;;5.28;;
23608;SDS011;11982;50.810;4.442;2022-09-03T10:15:57;8.52;;;5.28;;
23608;SDS011;11982;50.810;4.442;2022-09-03T10:26:32;10.90;;;5.97;;
23608;SDS011;11982;50.810;4.442;2022-09-03T10:29:01;9.43;;;5.32;;
23608;SDS011;11982;50.810;4.442;2022-09-03T10:31:47;9.45;;;5.75;;
23608;SDS011;11982;50.810;4.442;2022-09-03T10:37:36;8.05;;;5.43;;
23608;SDS011;11982;50.810;4.442;2022-09-03T10:46:06;8.38;;;6.93;;
23608;SDS011;11982;50.810;4.442;2022-09-03T10:51:22;11.35;;;6.63;;
23608;SDS011;11982;50.810;4.442;2022-09-03T10:59:45;8.85;;;5.50;;
23608;SDS011;11982;50.810;4.442;2022-09-03T11:05:25;8.70;;;7.10;;
23608;SDS011;11982;50.810;4.442;2022-09-03T11:08:22;11.77;;;7.03;;
23608;SDS011;11982;50.810;4.442;2022-09-03T11:10:56;8.05;;;6.10;;
23608;SDS011;11982;50.810;4.442;2022-09-03T11:13:33;7.03;;;5.47;;
23608;SDS011;11982;50.810;4.442;2022-09-03T11:16:28;14.73;;;6.50;;
23608;SDS011;11982;50.810;4.442;2022-09-03T11:19:00;11.35;;;5.65;;
23608;SDS011;11982;50.810;4.442;2022-09-03T11:21:32;13.75;;;6.30;;
23608;SDS011;11982;50.810;4.442;2022-09-03T11:26:53;7.85;;;5.97;;
23608;SDS011;11982;50.810;4.442;2022-09-03T11:30:01;6.72;;;5.65;;
23608;SDS011;11982;50.810;4.442;2022-09-03T11:34:59;7.10;;;5.35;;
23608;SDS011;11982;50.810;4.442;2022-09-03T11:37:28;10.23;;;5.70;;
23608;SDS011;11982;50.810;4.442;2022-09-03T11:40:05;6.82;;;5.97;;
23608;SDS011;11982;50.810;4.442;2022-09-03T11:42:36;9.60;;;5.82;;
23608;SDS011;11982;50.810;4.442;2022-09-03T11:45:23;10.23;;;5.63;;
23608;SDS011;11982;50.810;4.442;2022-09-03T11:47:52;15.50;;;6.50;;
23608;SDS011;11982;50.810;4.442;2022-09-03T11:52:45;7.47;;;5.95;;
23608;SDS011;11982;50.810;4.442;2022-09-03T11:55:25;7.82;;;5.65;;
23608;SDS011;11982;50.810;4.442;2022-09-03T11:57:56;6.38;;;5.75;;
23608;SDS011;11982;50.810;4.442;2022-09-03T12:00:22;8.43;;;6.15;;
23608;SDS011;11982;50.810;4.442;2022-09-03T12:02:55;8.75;;;6.50;;
23608;SDS011;11982;50.810;4.442;2022-09-03T12:10:43;13.32;;;5.40;;
23608;SDS011;11982;50.810;4.442;2022-09-03T12:18:59;7.40;;;5.10;;
23608;SDS011;11982;50.810;4.442;2022-09-03T12:21:35;6.25;;;5.03;;
23608;SDS011;11982;50.810;4.442;2022-09-03T12:24:02;8.52;;;5.95;;
23608;SDS011;11982;50.810;4.442;2022-09-03T12:26:28;6.25;;;4.97;;
23608;SDS011;11982;50.810;4.442;2022-09-03T12:28:54;6.63;;;5.10;;
23608;SDS011;11982;50.810;4.442;2022-09-03T12:31:23;5.90;;;5.03;;
23608;SDS011;11982;50.810;4.442;2022-09-03T12:33:54;9.90;;;5.22;;
23608;SDS011;11982;50.810;4.442;2022-09-03T12:36:23;6.97;;;4.70;;
23608;SDS011;11982;50.810;4.442;2022-09-03T12:38:51;5.13;;;4.68;;
23608;SDS011;11982;50.810;4.442;2022-09-03T12:41:20;5.47;;;4.97;;
23608;SDS011;11982;50.810;4.442;2022-09-03T12:43:55;6.03;;;4.82;;
23608;SDS011;11982;50.810;4.442;2022-09-03T12:46:25;6.20;;;4.70;;
23608;SDS011;11982;50.810;4.442;2022-09-03T12:48:59;5.28;;;4.78;;
23608;SDS011;11982;50.810;4.442;2022-09-03T12:51:37;7.95;;;4.72;;
23608;SDS011;11982;50.810;4.442;2022-09-03T12:54:07;5.45;;;4.53;;
23608;SDS011;11982;50.810;4.442;2022-09-03T12:56:40;6.45;;;5.03;;
23608;SDS011;11982;50.810;4.442;2022-09-03T12:59:10;6.57;;;4.70;;
23608;SDS011;11982;50.810;4.442;2022-09-03T13:01:44;5.47;;;3.97;;
23608;SDS011;11982;50.810;4.442;2022-09-03T13:04:35;4.88;;;3.90;;
23608;SDS011;11982;50.810;4.442;2022-09-03T13:07:11;7.97;;;4.10;;
23608;SDS011;11982;50.810;4.442;2022-09-03T13:09:45;6.57;;;4.20;;
23608;SDS011;11982;50.810;4.442;2022-09-03T13:12:27;4.57;;;4.18;;
23608;SDS011;11982;50.810;4.442;2022-09-03T13:15:03;5.32;;;3.78;;
23608;SDS011;11982;50.810;4.442;2022-09-03T13:17:35;4.00;;;3.70;;
23608;SDS011;11982;50.810;4.442;2022-09-03T13:20:23;8.38;;;4.72;;
23608;SDS011;11982;50.810;4.442;2022-09-03T13:29:07;4.38;;;3.95;;
23608;SDS011;11982;50.810;4.442;2022-09-03T13:31:42;4.68;;;3.97;;
23608;SDS011;11982;50.810;4.442;2022-09-03T13:34:36;5.55;;;4.35;;
23608;SDS011;11982;50.810;4.442;2022-09-03T13:39:58;5.32;;;3.97;;
23608;SDS011;11982;50.810;4.442;2022-09-03T13:42:57;3.70;;;3.40;;
23608;SDS011;11982;50.810;4.442;2022-09-03T13:45:49;5.40;;;3.40;;
23608;SDS011;11982;50.810;4.442;2022-09-03T13:48:39;5.95;;;3.42;;
23608;SDS011;11982;50.810;4.442;2022-09-03T13:51:26;4.93;;;2.85;;
23608;SDS011;11982;50.810;4.442;2022-09-03T13:54:18;3.05;;;2.80;;
23608;SDS011;11982;50.810;4.442;2022-09-03T13:59:34;4.30;;;3.47;;
23608;SDS011;11982;50.810;4.442;2022-09-03T14:02:09;4.97;;;3.60;;
23608;SDS011;11982;50.810;4.442;2022-09-03T14:08:17;3.30;;;2.78;;
23608;SDS011;11982;50.810;4.442;2022-09-03T14:10:59;6.55;;;3.20;;
23608;SDS011;11982;50.810;4.442;2022-09-03T14:19:15;3.35;;;2.83;;
23608;SDS011;11982;50.810;4.442;2022-09-03T14:21:46;2.90;;;2.70;;
23608;SDS011;11982;50.810;4.442;2022-09-03T14:24:23;3.13;;;2.80;;
23608;SDS011;11982;50.810;4.442;2022-09-03T14:26:55;3.85;;;3.30;;
23608;SDS011;11982;50.810;4.442;2022-09-03T14:29:24;2.70;;;2.50;;
23608;SDS011;11982;50.810;4.442;2022-09-03T14:34:53;5.90;;;2.88;;
23608;SDS011;11982;50.810;4.442;2022-09-03T14:59:29;3.50;;;2.75;;
23608;SDS011;11982;50.810;4.442;2022-09-03T15:07:44;3.47;;;3.10;;
23608;SDS011;11982;50.810;4.442;2022-09-03T15:18:29;3.33;;;3.03;;
23608;SDS011;11982;50.810;4.442;2022-09-03T15:24:11;7.50;;;3.10;;
23608;SDS011;11982;50.810;4.442;2022-09-03T15:32:21;6.60;;;3.58;;
23608;SDS011;11982;50.810;4.442;2022-09-03T15:35:09;5.38;;;3.33;;
23608;SDS011;11982;50.810;4.442;2022-09-03T15:37:59;3.97;;;3.58;;
23608;SDS011;11982;50.810;4.442;2022-09-03T15:40:47;2.85;;;2.58;;
23608;SDS011;11982;50.810;4.442;2022-09-03T15:45:54;4.00;;;3.30;;
23608;SDS011;11982;50.810;4.442;2022-09-03T15:51:27;3.13;;;2.83;;
23608;SDS011;11982;50.810;4.442;2022-09-03T15:54:16;3.00;;;2.70;;
23608;SDS011;11982;50.810;4.442;2022-09-03T15:56:53;4.78;;;3.03;;
23608;SDS011;11982;50.810;4.442;2022-09-03T15:59:29;5.82;;;2.53;;
23608;SDS011;11982;50.810;4.442;2022-09-03T16:02:44;8.23;;;5.53;;
23608;SDS011;11982;50.810;4.442;2022-09-03T16:05:40;8.60;;;5.85;;
23608;SDS011;11982;50.810;4.442;2022-09-03T16:08:23;5.28;;;3.85;;
23608;SDS011;11982;50.810;4.442;2022-09-03T16:11:00;4.40;;;4.00;;
23608;SDS011;11982;50.810;4.442;2022-09-03T16:16:26;8.95;;;4.28;;
23608;SDS011;11982;50.810;4.442;2022-09-03T16:24:47;7.93;;;4.25;;
23608;SDS011;11982;50.810;4.442;2022-09-03T16:27:31;6.13;;;4.35;;
23608;SDS011;11982;50.810;4.442;2022-09-03T16:33:11;7.93;;;4.60;;
23608;SDS011;11982;50.810;4.442;2022-09-03T16:37:45;7.15;;;5.07;;
23608;SDS011;11982;50.810;4.442;2022-09-03T16:46:07;5.65;;;4.45;;
23608;SDS011;11982;50.810;4.442;2022-09-03T16:54:09;7.07;;;5.13;;
23608;SDS011;11982;50.810;4.442;2022-09-03T17:00:21;6.65;;;4.40;;
23608;SDS011;11982;50.810;4.442;2022-09-03T17:02:31;4.93;;;4.13;;
23608;SDS011;11982;50.810;4.442;2022-09-03T17:13:29;5.50;;;4.30;;
23608;SDS011;11982;50.810;4.442;2022-09-03T17:16:10;5.68;;;3.97;;
23608;SDS011;11982;50.810;4.442;2022-09-03T17:18:44;6.07;;;4.78;;
23608;SDS011;11982;50.810;4.442;2022-09-03T17:27:15;12.23;;;6.78;;
23608;SDS011;11982;50.810;4.442;2022-09-03T17:30:04;7.75;;;5.03;;
23608;SDS011;11982;50.810;4.442;2022-09-03T17:32:52;5.93;;;4.57;;
23608;SDS011;11982;50.810;4.442;2022-09-03T17:35:57;7.60;;;4.82;;
23608;SDS011;11982;50.810;4.442;2022-09-03T17:38:41;4.20;;;3.80;;
23608;SDS011;11982;50.810;4.442;2022-09-03T17:44:08;9.80;;;4.78;;
23608;SDS011;11982;50.810;4.442;2022-09-03T17:49:25;6.78;;;4.68;;
23608;SDS011;11982;50.810;4.442;2022-09-03T17:52:06;7.80;;;4.68;;
23608;SDS011;11982;50.810;4.442;2022-09-03T17:54:46;5.05;;;3.83;;
23608;SDS011;11982;50.810;4.442;2022-09-03T17:57:17;4.32;;;3.83;;
23608;SDS011;11982;50.810;4.442;2022-09-03T18:00:03;5.63;;;4.03;;
23608;SDS011;11982;50.810;4.442;2022-09-03T18:05:23;5.17;;;3.43;;
23608;SDS011;11982;50.810;4.442;2022-09-03T18:08:02;6.38;;;4.18;;
23608;SDS011;11982;50.810;4.442;2022-09-03T18:10:59;10.05;;;4.90;;
23608;SDS011;11982;50.810;4.442;2022-09-03T18:16:28;5.97;;;4.68;;
23608;SDS011;11982;50.810;4.442;2022-09-03T18:19:02;4.40;;;4.00;;
23608;SDS011;11982;50.810;4.442;2022-09-03T18:21:53;6.03;;;4.32;;
23608;SDS011;11982;50.810;4.442;2022-09-03T18:24:44;4.93;;;3.80;;
23608;SDS011;11982;50.810;4.442;2022-09-03T18:27:38;4.97;;;3.95;;
23608;SDS011;11982;50.810;4.442;2022-09-03T18:30:33;8.88;;;4.10;;
23608;SDS011;11982;50.810;4.442;2022-09-03T18:33:22;4.68;;;3.85;;
23608;SDS011;11982;50.810;4.442;2022-09-03T18:36:07;5.57;;;3.80;;
23608;SDS011;11982;50.810;4.442;2022-09-03T18:38:52;6.57;;;4.00;;
23608;SDS011;11982;50.810;4.442;2022-09-03T18:44:55;4.15;;;3.38;;
23608;SDS011;11982;50.810;4.442;2022-09-03T18:51:29;3.40;;;2.97;;
23608;SDS011;11982;50.810;4.442;2022-09-03T18:54:18;4.65;;;3.03;;
23608;SDS011;11982;50.810;4.442;2022-09-03T18:57:21;3.75;;;2.88;;
23608;SDS011;11982;50.810;4.442;2022-09-03T19:00:10;2.70;;;2.50;;
23608;SDS011;11982;50.810;4.442;2022-09-03T19:03:02;3.00;;;2.63;;
23608;SDS011;11982;50.810;4.442;2022-09-03T19:15:46;4.95;;;2.95;;
23608;SDS011;11982;50.810;4.442;2022-09-03T19:21:35;4.10;;;3.45;;
23608;SDS011;11982;50.810;4.442;2022-09-03T19:24:22;3.65;;;3.03;;
23608;SDS011;11982;50.810;4.442;2022-09-03T19:27:14;3.85;;;3.42;;
23608;SDS011;11982;50.810;4.442;2022-09-03T19:30:20;5.80;;;4.50;;
23608;SDS011;11982;50.810;4.442;2022-09-03T19:36:32;6.10;;;4.38;;
23608;SDS011;11982;50.810;4.442;2022-09-03T19:39:29;4.70;;;3.80;;
23608;SDS011;11982;50.810;4.442;2022-09-03T19:45:16;4.15;;;3.65;;
23608;SDS011;11982;50.810;4.442;2022-09-03T19:48:34;4.07;;;3.67;;
23608;SDS011;11982;50.810;4.442;2022-09-03T19:51:31;9.63;;;4.43;;
23608;SDS011;11982;50.810;4.442;2022-09-03T19:54:22;9.43;;;4.95;;
23608;SDS011;11982;50.810;4.442;2022-09-03T19:57:08;10.32;;;5.55;;
23608;SDS011;11982;50.810;4.442;2022-09-03T19:59:55;10.00;;;5.75;;
23608;SDS011;11982;50.810;4.442;2022-09-03T20:02:41;8.23;;;5.40;;
23608;SDS011;11982;50.810;4.442;2022-09-03T20:05:28;5.32;;;4.40;;
23608;SDS011;11982;50.810;4.442;2022-09-03T20:08:14;7.25;;;4.65;;